Аэропорт: Магнитогорск. Магнитогорск

ICAO: USCM

METAR:
2018/07/16 19:30
USCM 161930Z 33003MPS 9999 FEW040 15/13 Q1015 R36/090065 NOSIG RMK QFE723
METAR:
Информация по данной станции не доступна